TimePDT,TemperatureF,Dew PointF,Humidity,Sea Level PressureIn,VisibilityMPH,Wind Direction,Wind SpeedMPH,Gust SpeedMPH,PrecipitationIn,Events,Conditions,WindDirDegrees,DateUTC
12:53 AM,79.0,53.1,40,29.73,10.0,WSW,6.9,-,N/A,,Clear,250,2013-08-10 07:53:00
1:44 AM,78.8,55.4,44,29.79,10.0,SSW,6.9,-,N/A,Thunderstorm,Thunderstorm,210,2013-08-10 08:44:00
1:53 AM,77.0,55.9,48,29.77,10.0,South,9.2,-,N/A,Thunderstorm,Thunderstorm,190,2013-08-10 08:53:00
2:53 AM,78.1,55.0,45,29.77,10.0,NW,12.7,-,0.00,Thunderstorm,Clear,320,2013-08-10 09:53:00
3:10 AM,73.4,55.4,53,29.80,10.0,Variable,3.5,-,N/A,,Clear,0,2013-08-10 10:10:00
3:39 AM,71.6,57.2,60,29.83,10.0,East,6.9,-,N/A,Thunderstorm,Clear,80,2013-08-10 10:39:00
3:53 AM,70.0,57.0,63,29.83,10.0,ENE,8.1,-,N/A,,Clear,60,2013-08-10 10:53:00
4:53 AM,69.1,55.0,61,29.86,10.0,NNE,9.2,-,N/A,,Clear,20,2013-08-10 11:53:00
5:53 AM,66.9,53.1,61,29.88,10.0,NE,4.6,-,N/A,,Clear,50,2013-08-10 12:53:00
6:53 AM,68.0,53.1,59,29.90,10.0,WSW,4.6,-,N/A,,Scattered Clouds,240,2013-08-10 13:53:00
7:53 AM,71.1,54.0,55,29.91,10.0,Variable,4.6,-,N/A,,Overcast,0,2013-08-10 14:53:00
8:53 AM,75.9,54.0,46,29.90,10.0,North,6.9,-,N/A,,Partly Cloudy,360,2013-08-10 15:53:00
9:53 AM,81.0,53.1,38,29.89,10.0,NNE,4.6,-,N/A,,Clear,20,2013-08-10 16:53:00
10:53 AM,82.9,52.0,34,29.90,10.0,Variable,4.6,-,N/A,,Clear,0,2013-08-10 17:53:00
11:53 AM,86.0,50.0,29,29.90,10.0,Variable,4.6,-,N/A,,Clear,0,2013-08-10 18:53:00
12:53 PM,89.1,48.9,25,29.89,10.0,Variable,5.8,-,N/A,,Clear,0,2013-08-10 19:53:00
1:53 PM,90.0,48.9,24,29.87,10.0,Variable,3.5,-,N/A,,Clear,0,2013-08-10 20:53:00
2:53 PM,91.0,50.0,24,29.85,10.0,Variable,3.5,-,N/A,,Clear,0,2013-08-10 21:53:00
3:53 PM,91.9,48.9,23,29.82,10.0,Variable,4.6,-,N/A,,Clear,0,2013-08-10 22:53:00
4:53 PM,91.0,50.0,24,29.81,10.0,Variable,4.6,-,N/A,,Clear,0,2013-08-10 23:53:00
5:53 PM,89.1,50.0,26,29.80,10.0,WSW,12.7,-,N/A,,Clear,240,2013-08-11 00:53:00
6:53 PM,88.0,50.0,27,29.80,10.0,WSW,11.5,-,N/A,,Clear,250,2013-08-11 01:53:00
7:53 PM,84.9,52.0,32,29.80,10.0,WSW,9.2,-,N/A,,Clear,240,2013-08-11 02:53:00
8:53 PM,84.9,48.0,28,29.79,10.0,NW,5.8,-,N/A,,Clear,310,2013-08-11 03:53:00
9:53 PM,82.0,52.0,35,29.83,10.0,SSW,23.0,32.2,N/A,Thunderstorm,Mostly Cloudy,200,2013-08-11 04:53:00
10:23 PM,64.4,60.8,88,29.91,1.8,WSW,26.5,40.3,0.17,Rain-Thunderstorm,Heavy Thunderstorms and Rain,240,2013-08-11 05:23:00
10:30 PM,66.2,60.8,83,29.90,3.0,WSW,19.6,-,0.18,Rain-Thunderstorm,Light Thunderstorms and Rain,240,2013-08-11 05:30:00
10:53 PM,66.0,61.0,84,29.89,2.5,SW,10.4,-,0.33,Rain-Thunderstorm,Heavy Thunderstorms and Rain,230,2013-08-11 05:53:00
11:03 PM,68.0,60.8,78,29.93,6.0,Calm,Calm,-,0.01,Rain-Thunderstorm,Light Thunderstorms and Rain,0,2013-08-11 06:03:00
11:40 PM,69.8,60.8,73,29.89,10.0,NW,9.2,-,0.01,Rain,Light Rain,310,2013-08-11 06:40:00
11:53 PM,69.1,60.1,73,29.86,10.0,NW,12.7,23.0,0.01,,Scattered Clouds,320,2013-08-11 06:53:00